createdAt,value
2018-12-29T00:03:45.825Z,17.62
2018-12-29T00:08:51.968Z,16.62
2018-12-29T00:13:58.134Z,17.77
2018-12-29T00:19:14.569Z,17.65
2018-12-29T00:24:20.786Z,16.97
2018-12-29T00:29:26.971Z,16.95
2018-12-29T00:34:33.250Z,16.97
2018-12-29T00:39:39.410Z,16.12
2018-12-29T00:44:45.807Z,15.95
2018-12-29T00:49:52.064Z,16.30
2018-12-29T00:54:58.349Z,15.98
2018-12-29T01:00:04.927Z,16.05
2018-12-29T01:05:11.224Z,14.93
2018-12-29T01:10:17.567Z,14.45
2018-12-29T01:15:23.779Z,14.23
2018-12-29T01:20:30.105Z,13.78
2018-12-29T01:25:36.628Z,14.07
2018-12-29T01:30:42.758Z,13.48
2018-12-29T01:35:49.137Z,13.05
2018-12-29T01:40:55.436Z,12.28
2018-12-29T01:46:01.719Z,13.20
2018-12-29T01:51:08.030Z,12.18
2018-12-29T01:56:14.174Z,12.95
2018-12-29T02:01:20.456Z,11.83
2018-12-29T02:06:26.622Z,11.93
2018-12-29T02:11:32.809Z,12.10
2018-12-29T02:16:39.248Z,10.82
2018-12-29T02:21:45.484Z,11.00
2018-12-29T02:26:51.650Z,9.98
2018-12-29T02:31:57.930Z,9.60
2018-12-29T02:37:04.203Z,10.45
2018-12-29T02:42:10.570Z,9.15
2018-12-29T02:47:16.755Z,9.48
2018-12-29T02:52:23.049Z,9.30
2018-12-29T02:57:29.202Z,9.00
2018-12-29T03:02:35.302Z,9.15
2018-12-29T03:07:41.583Z,9.10
2018-12-29T03:12:47.775Z,9.53
2018-12-29T03:17:54.035Z,9.33
2018-12-29T03:23:00.243Z,9.15
2018-12-29T03:28:06.806Z,8.10
2018-12-29T03:33:13.143Z,8.45
2018-12-29T03:38:19.712Z,8.33
2018-12-29T03:43:25.961Z,8.60
2018-12-29T03:48:32.287Z,7.78
2018-12-29T03:53:38.706Z,7.70
2018-12-29T03:58:44.880Z,7.90
2018-12-29T04:03:51.168Z,7.95
2018-12-29T04:09:34.868Z,7.80
2018-12-29T04:14:41.479Z,7.80
2018-12-29T04:19:48.059Z,7.20
2018-12-29T04:24:54.324Z,7.28
2018-12-29T04:30:00.483Z,8.05
2018-12-29T04:35:06.892Z,7.90
2018-12-29T04:40:13.082Z,7.53
2018-12-29T04:45:19.243Z,7.55
2018-12-29T04:50:25.455Z,7.53
2018-12-29T04:55:31.771Z,7.72
2018-12-29T05:00:37.959Z,7.28
2018-12-29T05:05:44.082Z,7.45
2018-12-29T05:10:51.376Z,7.30
2018-12-29T05:15:57.729Z,7.75
2018-12-29T05:21:04.151Z,6.97
2018-12-29T05:26:11.407Z,6.90
2018-12-29T05:31:17.610Z,7.25
2018-12-29T05:36:23.753Z,7.00
2018-12-29T05:41:29.962Z,7.40
2018-12-29T05:46:36.325Z,7.28
2018-12-29T05:51:42.673Z,7.87
2018-12-29T05:56:48.974Z,7.10
2018-12-29T06:01:55.256Z,7.10
2018-12-29T06:07:01.451Z,7.53
2018-12-29T06:12:07.654Z,7.70
2018-12-29T06:17:13.867Z,8.08
2018-12-29T06:22:20.114Z,7.12
2018-12-29T06:27:26.433Z,7.70
2018-12-29T06:32:32.835Z,7.67
2018-12-29T06:37:39.086Z,7.92
2018-12-29T06:42:45.267Z,7.87
2018-12-29T06:47:51.692Z,7.72
2018-12-29T06:52:57.815Z,8.23
2018-12-29T06:58:04.141Z,7.75
2018-12-29T07:03:10.709Z,8.00
2018-12-29T07:08:17.085Z,8.18
2018-12-29T07:13:23.368Z,8.00
2018-12-29T07:18:29.878Z,7.60
2018-12-29T07:23:36.099Z,8.30
2018-12-29T07:28:42.400Z,9.00
2018-12-29T07:33:48.853Z,8.70
2018-12-29T07:38:54.976Z,8.73
2018-12-29T07:44:01.280Z,8.58
2018-12-29T07:49:07.498Z,9.05
2018-12-29T07:54:15.446Z,9.28
2018-12-29T07:59:21.633Z,8.68
2018-12-29T08:04:27.925Z,8.40
2018-12-29T08:09:34.086Z,7.90
2018-12-29T08:14:40.258Z,9.83
2018-12-29T08:19:46.592Z,9.40
2018-12-29T08:24:52.995Z,9.45
2018-12-29T08:29:59.218Z,9.83
2018-12-29T08:35:05.527Z,9.75
2018-12-29T08:40:12.789Z,10.10
2018-12-29T08:45:18.905Z,9.60
2018-12-29T08:50:25.090Z,11.55
2018-12-29T08:55:31.753Z,10.15
2018-12-29T09:00:37.941Z,9.50
2018-12-29T09:05:44.116Z,10.05
2018-12-29T09:10:50.320Z,9.43
2018-12-29T09:15:56.589Z,9.30
2018-12-29T09:21:02.973Z,10.05
2018-12-29T09:26:09.107Z,9.53
2018-12-29T09:31:15.259Z,9.20
2018-12-29T09:36:21.473Z,9.10
2018-12-29T09:41:27.725Z,9.25
2018-12-29T09:46:34.151Z,8.63
2018-12-29T09:51:40.443Z,8.15
2018-12-29T09:56:46.607Z,8.83
2018-12-29T10:01:52.810Z,8.18
2018-12-29T10:06:59.166Z,8.18
2018-12-29T10:12:05.253Z,8.10
2018-12-29T10:17:11.348Z,7.95
2018-12-29T10:22:17.493Z,8.03
2018-12-29T10:27:23.664Z,8.20
2018-12-29T10:32:29.994Z,7.47
2018-12-29T10:37:37.012Z,8.10
2018-12-29T10:42:43.266Z,7.40
2018-12-29T10:47:49.347Z,7.40
2018-12-29T10:52:55.793Z,7.15
2018-12-29T10:58:01.911Z,7.53
2018-12-29T11:03:08.086Z,7.00
2018-12-29T11:08:14.347Z,7.05
2018-12-29T11:13:20.523Z,7.55
2018-12-29T11:18:27.048Z,7.67
2018-12-29T11:23:33.292Z,7.30
2018-12-29T11:28:39.461Z,7.03
2018-12-29T11:33:45.572Z,7.47
2018-12-29T11:38:51.772Z,7.90
2018-12-29T11:43:57.907Z,8.25
2018-12-29T11:49:04.182Z,7.62
2018-12-29T11:54:10.561Z,8.23
2018-12-29T11:59:16.790Z,8.60
2018-12-29T12:04:22.855Z,9.20
2018-12-29T12:09:30.351Z,8.65
2018-12-29T12:14:36.649Z,9.58
2018-12-29T12:19:43.367Z,9.13
2018-12-29T12:24:49.591Z,9.93
2018-12-29T12:29:55.813Z,9.88
2018-12-29T12:35:02.277Z,9.30
2018-12-29T12:40:08.556Z,8.93
2018-12-29T12:45:14.786Z,9.35
2018-12-29T12:50:20.954Z,9.25
2018-12-29T12:55:27.192Z,9.10
2018-12-29T13:00:33.466Z,9.98
2018-12-29T13:05:40.119Z,10.30
2018-12-29T13:10:46.323Z,9.70
2018-12-29T13:15:52.500Z,9.25
2018-12-29T13:20:58.862Z,10.28
2018-12-29T13:26:05.533Z,9.63
2018-12-29T13:31:11.743Z,8.55
2018-12-29T13:36:17.963Z,8.55
2018-12-29T13:41:24.250Z,8.05
2018-12-29T13:46:30.624Z,7.22
2018-12-29T13:51:36.933Z,7.10
2018-12-29T13:56:43.221Z,6.37
2018-12-29T14:01:49.456Z,5.87
2018-12-29T14:06:56.079Z,5.60
2018-12-29T14:12:02.266Z,5.17
2018-12-29T14:17:08.406Z,5.15
2018-12-29T14:22:14.766Z,4.60
2018-12-29T14:27:21.064Z,4.50
2018-12-29T14:32:27.234Z,4.50
2018-12-29T14:37:33.455Z,4.37
2018-12-29T14:42:40.025Z,3.80
2018-12-29T14:47:46.281Z,4.05
2018-12-29T14:52:52.368Z,4.33
2018-12-29T14:57:58.558Z,3.72
2018-12-29T15:03:04.810Z,3.92
2018-12-29T15:08:12.015Z,4.50
2018-12-29T15:13:18.387Z,3.60
2018-12-29T15:18:24.536Z,3.62
2018-12-29T15:23:31.096Z,3.55
2018-12-29T15:28:37.398Z,3.22
2018-12-29T15:33:43.609Z,3.45
2018-12-29T15:38:49.876Z,3.30
2018-12-29T15:43:55.999Z,3.37
2018-12-29T15:49:02.262Z,3.12
2018-12-29T15:54:08.861Z,3.37
2018-12-29T15:59:15.381Z,3.12
2018-12-29T16:04:21.659Z,2.98
2018-12-29T16:09:27.933Z,3.33
2018-12-29T16:14:35.518Z,3.40
2018-12-29T16:19:42.146Z,3.15
2018-12-29T16:24:48.451Z,3.22
2018-12-29T16:29:55.020Z,3.27
2018-12-29T16:35:01.216Z,2.95
2018-12-29T16:40:07.477Z,3.02
2018-12-29T16:45:14.116Z,3.15
2018-12-29T16:50:20.344Z,3.08
2018-12-29T16:55:26.655Z,3.42
2018-12-29T17:00:33.220Z,2.58
2018-12-29T17:05:39.516Z,3.10
2018-12-29T17:10:45.842Z,2.80
2018-12-29T17:15:52.167Z,2.47
2018-12-29T17:20:58.440Z,2.20
2018-12-29T17:26:04.726Z,2.52
2018-12-29T17:31:11.366Z,2.42
2018-12-29T17:36:17.660Z,2.27
2018-12-29T17:41:23.977Z,1.85
2018-12-29T17:46:30.698Z,2.08
2018-12-29T17:51:36.914Z,1.60
2018-12-29T17:56:43.259Z,1.92
2018-12-29T18:01:50.714Z,1.85
2018-12-29T18:06:56.949Z,1.90
2018-12-29T18:12:03.251Z,1.92
2018-12-29T18:17:09.584Z,2.10
2018-12-29T18:22:16.010Z,2.20
2018-12-29T18:27:22.146Z,2.00
2018-12-29T18:32:29.688Z,2.15
2018-12-29T18:37:36.016Z,2.15
2018-12-29T18:42:42.648Z,2.08
2018-12-29T18:47:48.786Z,1.90
2018-12-29T18:52:54.996Z,1.90
2018-12-29T18:58:01.193Z,2.27
2018-12-29T19:03:07.772Z,2.15
2018-12-29T19:08:14.056Z,2.12
2018-12-29T19:13:20.376Z,2.05
2018-12-29T19:18:26.814Z,2.25
2018-12-29T19:23:33.052Z,2.47
2018-12-29T19:28:39.661Z,2.30
2018-12-29T19:33:46.300Z,2.65
2018-12-29T19:38:52.556Z,2.42
2018-12-29T19:43:59.083Z,2.50
2018-12-29T19:49:05.580Z,2.50
2018-12-29T19:54:11.851Z,2.20
2018-12-29T19:59:18.301Z,2.20
2018-12-29T20:04:24.533Z,2.33
2018-12-29T20:09:31.242Z,2.47
2018-12-29T20:14:37.739Z,2.52
2018-12-29T20:19:44.066Z,2.67
2018-12-29T20:24:50.204Z,2.80
2018-12-29T20:29:56.357Z,2.55
2018-12-29T20:35:02.664Z,2.35
2018-12-29T20:40:08.912Z,2.55
2018-12-29T20:45:15.041Z,2.25
2018-12-29T20:50:21.223Z,2.37
2018-12-29T20:55:27.408Z,2.65
2018-12-29T21:00:33.975Z,2.35
2018-12-29T21:05:40.209Z,2.20
2018-12-29T21:10:46.391Z,2.22
2018-12-29T21:15:52.490Z,2.55
2018-12-29T21:20:58.670Z,2.47
2018-12-29T21:26:04.883Z,2.47
2018-12-29T21:31:11.101Z,2.37
2018-12-29T21:36:17.197Z,2.52
2018-12-29T21:41:23.546Z,1.98
2018-12-29T21:46:30.008Z,2.30
2018-12-29T21:51:36.206Z,2.10
2018-12-29T21:56:42.922Z,2.35
2018-12-29T22:01:49.243Z,2.30
2018-12-29T22:06:55.826Z,2.67
2018-12-29T22:12:01.966Z,2.45
2018-12-29T22:17:08.513Z,2.22
2018-12-29T22:22:14.745Z,2.60
2018-12-29T22:27:21.669Z,2.37
2018-12-29T22:32:27.874Z,2.33
2018-12-29T22:37:34.549Z,2.52
2018-12-29T22:42:40.600Z,2.15
2018-12-29T22:47:48.048Z,2.12
2018-12-29T22:52:54.316Z,1.92
2018-12-29T22:58:08.383Z,2.98
2018-12-29T23:03:08.737Z,3.00
2018-12-29T23:08:14.908Z,2.65
2018-12-29T23:13:21.122Z,2.42
2018-12-29T23:18:27.448Z,2.72
2018-12-29T23:23:33.668Z,2.22
2018-12-29T23:28:39.958Z,2.47
2018-12-29T23:33:46.226Z,2.17
2018-12-29T23:38:52.844Z,2.30
2018-12-29T23:43:59.125Z,2.30
2018-12-29T23:49:05.346Z,2.47
2018-12-29T23:54:11.570Z,2.60
2018-12-29T23:59:18.291Z,2.37
